Sheridan Park, Washington
Current Conditions -  °F | °C
As of 3:55 PM on Sunday 21 Dec 2014 (Local Time) from KPWT Reporting Station
Clear Clear  
Wind Chill: 52°   Ceiling: Unl
Heat Index: 52°   Visibility: 10mi
Dew Point: 46°   Wind: 7mph
Humidity: 82%   Direction: 240°WSW
Pressure: 30.04"   Gusts: NA
Location:  47.6314°N, 122.638°W
Report Text: KPWT 212355Z AUTO 24006KT 10SM CLR 11/08 A3004 RMK AO1 10130 20090 401300080 52024
Loading
Personal Weather Stations






























Interactive Weather Map New forecast layout! Learn more

10-Day Weather Forecast

Advertisements
Track Severe Weather on mobile